createdAt,value
2023-03-31T00:00:03.245Z,21.73
2023-03-31T00:02:36.090Z,21.73
2023-03-31T00:05:11.410Z,21.72
2023-03-31T00:07:45.093Z,21.72
2023-03-31T00:10:18.751Z,21.71
2023-03-31T00:12:57.206Z,21.71
2023-03-31T00:15:30.277Z,21.71
2023-03-31T00:18:03.538Z,21.71
2023-03-31T00:20:37.245Z,21.71
2023-03-31T00:23:10.408Z,21.70
2023-03-31T00:25:43.350Z,21.70
2023-03-31T00:28:16.313Z,21.70
2023-03-31T00:30:49.406Z,21.70
2023-03-31T00:33:23.326Z,21.70
2023-03-31T00:35:56.219Z,21.70
2023-03-31T00:38:29.393Z,21.70
2023-03-31T00:41:02.056Z,21.70
2023-03-31T00:43:35.411Z,21.69
2023-03-31T00:46:11.215Z,21.69
2023-03-31T00:48:50.097Z,21.69
2023-03-31T00:51:22.994Z,21.68
2023-03-31T00:53:56.064Z,21.68
2023-03-31T00:56:30.565Z,21.68
2023-03-31T00:59:04.369Z,21.68
2023-03-31T01:01:37.413Z,21.68
2023-03-31T01:04:10.259Z,21.67
2023-03-31T01:06:43.430Z,21.67
2023-03-31T01:09:17.140Z,21.66
2023-03-31T01:11:50.420Z,21.66
2023-03-31T01:14:23.367Z,21.66
2023-03-31T01:16:56.522Z,21.65
2023-03-31T01:19:29.502Z,21.65
2023-03-31T01:22:07.199Z,21.65
2023-03-31T01:24:48.453Z,21.64
2023-03-31T01:27:23.080Z,21.64
2023-03-31T01:29:56.373Z,21.63
2023-03-31T01:32:30.287Z,21.63
2023-03-31T01:35:03.569Z,21.63
2023-03-31T01:37:37.524Z,21.63
2023-03-31T01:40:11.424Z,21.62
2023-03-31T01:42:44.590Z,21.62
2023-03-31T01:45:18.351Z,21.62
2023-03-31T01:47:51.450Z,21.61
2023-03-31T01:50:24.379Z,21.61
2023-03-31T01:52:57.088Z,21.61
2023-03-31T01:55:30.625Z,21.60
2023-03-31T01:58:04.616Z,21.60
2023-03-31T02:00:38.254Z,21.60
2023-03-31T02:03:11.317Z,21.60
2023-03-31T02:08:34.204Z,21.59
2023-03-31T02:11:08.284Z,21.59
2023-03-31T02:13:41.341Z,21.59
2023-03-31T02:16:15.453Z,21.59
2023-03-31T02:18:48.548Z,21.59
2023-03-31T02:21:21.396Z,21.58
2023-03-31T02:23:54.130Z,21.58
2023-03-31T02:26:27.563Z,21.58
2023-03-31T02:29:00.149Z,21.58
2023-03-31T02:31:34.509Z,21.57
2023-03-31T02:34:07.499Z,21.57
2023-03-31T02:36:40.307Z,21.56
2023-03-31T02:39:14.562Z,21.56
2023-03-31T02:41:49.393Z,21.56
2023-03-31T02:44:22.577Z,21.55
2023-03-31T02:46:55.762Z,21.55
2023-03-31T02:49:30.456Z,21.54
2023-03-31T02:52:03.443Z,21.54
2023-03-31T02:54:37.418Z,21.54
2023-03-31T02:57:10.668Z,21.53
2023-03-31T02:59:43.655Z,21.53
2023-03-31T03:02:17.401Z,21.53
2023-03-31T03:04:50.404Z,21.52
2023-03-31T03:07:23.295Z,21.52
2023-03-31T03:09:56.368Z,21.52
2023-03-31T03:12:32.733Z,21.51
2023-03-31T03:15:06.347Z,21.51
2023-03-31T03:17:39.554Z,21.51
2023-03-31T03:20:12.578Z,21.50
2023-03-31T03:22:45.770Z,21.50
2023-03-31T03:25:19.220Z,21.50
2023-03-31T03:27:52.384Z,21.49
2023-03-31T03:30:25.306Z,21.49
2023-03-31T03:32:58.457Z,21.49
2023-03-31T03:35:31.425Z,21.49
2023-03-31T03:38:04.284Z,21.48
2023-03-31T03:40:37.624Z,21.48
2023-03-31T03:43:10.544Z,21.48
2023-03-31T03:45:43.243Z,21.48
2023-03-31T03:48:16.303Z,21.48
2023-03-31T03:50:49.415Z,21.47
2023-03-31T03:53:22.283Z,21.47
2023-03-31T03:55:55.616Z,21.47
2023-03-31T03:58:28.406Z,21.47
2023-03-31T04:01:01.400Z,21.46
2023-03-31T04:03:34.363Z,21.46
2023-03-31T04:06:07.946Z,21.46
2023-03-31T04:08:40.634Z,21.46
2023-03-31T04:11:13.530Z,21.46
2023-03-31T04:13:46.445Z,21.45
2023-03-31T04:16:19.330Z,21.45
2023-03-31T04:18:52.664Z,21.45
2023-03-31T04:21:25.513Z,21.45
2023-03-31T04:24:12.219Z,21.45
2023-03-31T04:26:49.475Z,21.44
2023-03-31T04:29:22.898Z,21.44
2023-03-31T04:31:56.877Z,21.44
2023-03-31T04:34:30.348Z,21.44
2023-03-31T04:37:03.480Z,21.43
2023-03-31T04:39:36.461Z,21.43
2023-03-31T04:42:09.316Z,21.43
2023-03-31T04:44:42.794Z,21.43
2023-03-31T04:47:16.367Z,21.43
2023-03-31T04:49:49.507Z,21.43
2023-03-31T04:52:22.334Z,21.42
2023-03-31T04:54:55.550Z,21.42
2023-03-31T04:57:28.566Z,21.42
2023-03-31T05:00:01.603Z,21.42
2023-03-31T05:02:34.875Z,21.42
2023-03-31T05:05:08.603Z,21.41
2023-03-31T05:07:41.536Z,21.41
2023-03-31T05:10:14.549Z,21.41
2023-03-31T05:12:47.498Z,21.41
2023-03-31T05:15:20.407Z,21.41
2023-03-31T05:17:53.680Z,21.41
2023-03-31T05:20:26.645Z,21.42
2023-03-31T05:22:59.904Z,21.42
2023-03-31T05:25:33.421Z,21.42
2023-03-31T05:28:06.420Z,21.42
2023-03-31T05:30:39.447Z,21.41
2023-03-31T05:33:12.605Z,21.41
2023-03-31T05:35:45.892Z,21.41
2023-03-31T05:38:18.426Z,21.41
2023-03-31T05:40:51.635Z,21.41
2023-03-31T05:43:24.532Z,21.40
2023-03-31T05:45:57.629Z,21.40
2023-03-31T05:48:30.560Z,21.40
2023-03-31T05:51:03.557Z,21.40
2023-03-31T05:53:36.557Z,21.40
2023-03-31T05:56:09.655Z,21.40
2023-03-31T05:58:42.933Z,21.40
2023-03-31T06:01:18.257Z,21.41
2023-03-31T06:03:49.619Z,21.41
2023-03-31T06:06:22.594Z,21.41
2023-03-31T06:08:59.523Z,21.41
2023-03-31T06:11:32.602Z,21.40
2023-03-31T06:14:05.482Z,21.40
2023-03-31T06:16:38.566Z,21.40
2023-03-31T06:19:11.502Z,21.40
2023-03-31T06:21:44.829Z,21.40
2023-03-31T06:24:17.846Z,21.40
2023-03-31T06:26:53.491Z,21.40
2023-03-31T06:29:24.974Z,21.40
2023-03-31T06:31:58.704Z,21.39
2023-03-31T06:34:31.850Z,21.39
2023-03-31T06:37:04.812Z,21.38
2023-03-31T06:39:37.638Z,21.37
2023-03-31T06:42:10.776Z,21.37
2023-03-31T06:44:43.668Z,21.36
2023-03-31T06:47:16.715Z,21.36
2023-03-31T06:50:03.773Z,21.35
2023-03-31T06:52:36.856Z,21.35
2023-03-31T06:55:09.535Z,21.34
2023-03-31T06:57:42.952Z,21.34
2023-03-31T07:00:15.809Z,21.33
2023-03-31T07:02:48.984Z,21.33
2023-03-31T07:05:21.520Z,21.32
2023-03-31T07:07:54.749Z,21.32
2023-03-31T07:10:27.879Z,21.31
2023-03-31T07:13:01.631Z,21.31
2023-03-31T07:15:33.885Z,21.30
2023-03-31T07:18:06.900Z,21.30
2023-03-31T07:20:39.719Z,21.30
2023-03-31T07:23:12.824Z,21.29
2023-03-31T07:25:46.874Z,21.29
2023-03-31T07:28:19.795Z,21.29
2023-03-31T07:30:52.935Z,21.28
2023-03-31T07:33:25.610Z,21.28
2023-03-31T07:36:10.856Z,21.27
2023-03-31T07:38:31.657Z,21.27
2023-03-31T07:41:08.983Z,21.26
2023-03-31T07:43:37.601Z,21.26
2023-03-31T07:46:10.937Z,21.26
2023-03-31T07:48:43.681Z,21.25
2023-03-31T07:51:16.821Z,21.25
2023-03-31T07:53:49.783Z,21.25
2023-03-31T07:56:22.997Z,21.24
2023-03-31T07:58:57.800Z,21.24
2023-03-31T08:01:28.839Z,21.23
2023-03-31T08:04:02.045Z,21.23
2023-03-31T08:06:34.814Z,21.23
2023-03-31T08:09:07.929Z,21.22
2023-03-31T08:11:40.822Z,21.22
2023-03-31T08:14:13.916Z,21.21
2023-03-31T08:16:46.742Z,21.21
2023-03-31T08:19:20.045Z,21.20
2023-03-31T08:21:52.797Z,21.20
2023-03-31T08:24:25.993Z,21.20
2023-03-31T08:26:59.108Z,21.19
2023-03-31T08:29:31.769Z,21.19
2023-03-31T08:32:05.175Z,21.18
2023-03-31T08:34:37.789Z,21.18
2023-03-31T08:37:10.693Z,21.18
2023-03-31T08:39:44.010Z,21.18
2023-03-31T08:42:16.816Z,21.17
2023-03-31T08:44:49.863Z,21.17
2023-03-31T08:47:23.067Z,21.17
2023-03-31T08:49:55.854Z,21.17
2023-03-31T08:52:29.063Z,21.16
2023-03-31T08:55:02.043Z,21.16
2023-03-31T08:57:35.060Z,21.16
2023-03-31T09:00:07.754Z,21.16
2023-03-31T09:02:40.986Z,21.16
2023-03-31T09:05:13.734Z,21.16
2023-03-31T09:07:47.119Z,21.16
2023-03-31T09:10:19.960Z,21.16
2023-03-31T09:12:53.283Z,21.16
2023-03-31T09:15:27.214Z,21.16
2023-03-31T09:18:01.033Z,21.16
2023-03-31T09:20:34.180Z,21.15
2023-03-31T09:23:09.651Z,21.15
2023-03-31T09:25:42.888Z,21.15
2023-03-31T09:28:16.073Z,21.15
2023-03-31T09:30:48.898Z,21.15
2023-03-31T09:33:21.896Z,21.14
2023-03-31T09:35:55.179Z,21.14
2023-03-31T09:38:28.088Z,21.13
2023-03-31T09:41:00.901Z,21.13
2023-03-31T09:43:34.148Z,21.12
2023-03-31T09:46:09.930Z,21.12
2023-03-31T09:48:40.209Z,21.12
2023-03-31T09:51:13.091Z,21.12
2023-03-31T09:53:45.799Z,21.11
2023-03-31T09:56:18.818Z,21.11
2023-03-31T09:58:51.945Z,21.11
2023-03-31T10:01:24.978Z,21.10
2023-03-31T10:03:58.200Z,21.10
2023-03-31T10:06:33.067Z,21.10
2023-03-31T10:09:05.953Z,21.10
2023-03-31T10:11:39.166Z,21.10
2023-03-31T10:14:11.830Z,21.10
2023-03-31T10:16:44.860Z,21.10
2023-03-31T10:19:18.111Z,21.10
2023-03-31T10:21:50.846Z,21.10
2023-03-31T10:24:24.198Z,21.11
2023-03-31T10:26:56.998Z,21.11
2023-03-31T10:29:29.974Z,21.12
2023-03-31T10:32:02.880Z,21.12
2023-03-31T10:34:36.202Z,21.13
2023-03-31T10:37:09.139Z,21.13
2023-03-31T10:39:42.073Z,21.13
2023-03-31T10:42:14.997Z,21.14
2023-03-31T10:44:47.987Z,21.14
2023-03-31T10:47:21.035Z,21.14
2023-03-31T10:49:53.978Z,21.14
2023-03-31T10:52:27.050Z,21.14
2023-03-31T10:55:00.168Z,21.14
2023-03-31T10:57:33.033Z,21.15
2023-03-31T11:00:05.995Z,21.15
2023-03-31T11:02:39.277Z,21.15
2023-03-31T11:05:11.892Z,21.15
2023-03-31T11:07:44.917Z,21.16
2023-03-31T11:10:18.096Z,21.16
2023-03-31T11:12:50.970Z,21.16
2023-03-31T11:15:23.940Z,21.16
2023-03-31T11:17:56.977Z,21.16
2023-03-31T11:20:30.914Z,21.17
2023-03-31T11:23:03.147Z,21.17
2023-03-31T11:25:36.004Z,21.17
2023-03-31T11:28:08.932Z,21.17
2023-03-31T11:30:42.092Z,21.17
2023-03-31T11:33:14.983Z,21.17
2023-03-31T11:35:48.212Z,21.18
2023-03-31T11:38:23.409Z,21.18
2023-03-31T11:40:54.189Z,21.18
2023-03-31T11:43:27.046Z,21.18
2023-03-31T11:46:00.039Z,21.19
2023-03-31T11:48:33.096Z,21.19
2023-03-31T11:51:06.246Z,21.19
2023-03-31T11:53:39.552Z,21.19
2023-03-31T11:56:12.984Z,21.19
2023-03-31T11:58:46.288Z,21.20
2023-03-31T12:01:19.078Z,21.20
2023-03-31T12:03:52.048Z,21.20
2023-03-31T12:06:25.039Z,21.19
2023-03-31T12:08:58.194Z,21.19
2023-03-31T12:11:31.115Z,21.20
2023-03-31T12:14:04.303Z,21.20
2023-03-31T12:16:41.421Z,21.20
2023-03-31T12:19:14.035Z,21.20
2023-03-31T12:21:47.044Z,21.20
2023-03-31T12:24:20.405Z,21.21
2023-03-31T12:26:55.029Z,21.21
2023-03-31T12:29:28.151Z,21.22
2023-03-31T12:32:01.031Z,21.23
2023-03-31T12:34:34.154Z,21.23
2023-03-31T12:37:07.025Z,21.24
2023-03-31T12:39:40.205Z,21.25
2023-03-31T12:42:13.081Z,21.25
2023-03-31T12:44:46.421Z,21.26
2023-03-31T12:47:19.073Z,21.26
2023-03-31T12:49:52.256Z,21.27
2023-03-31T12:52:25.362Z,21.27
2023-03-31T12:54:58.459Z,21.27
2023-03-31T12:57:31.130Z,21.27
2023-03-31T13:00:04.518Z,21.27
2023-03-31T13:02:38.263Z,21.27
2023-03-31T13:05:11.361Z,21.27
2023-03-31T13:07:44.219Z,21.27
2023-03-31T13:10:17.410Z,21.27
2023-03-31T13:12:50.496Z,21.27
2023-03-31T13:15:23.645Z,21.28
2023-03-31T13:17:57.333Z,21.28
2023-03-31T13:20:30.278Z,21.28
2023-03-31T13:23:03.238Z,21.28
2023-03-31T13:25:36.405Z,21.28
2023-03-31T13:28:09.383Z,21.27
2023-03-31T13:30:42.436Z,21.27
2023-03-31T13:33:17.758Z,21.27
2023-03-31T13:35:48.288Z,21.27
2023-03-31T13:38:21.269Z,21.26
2023-03-31T13:40:54.282Z,21.26
2023-03-31T13:43:27.379Z,21.26
2023-03-31T13:46:00.500Z,21.26
2023-03-31T13:48:33.532Z,21.25
2023-03-31T13:51:06.472Z,21.25
2023-03-31T13:53:39.702Z,21.25
2023-03-31T13:56:13.178Z,21.25
2023-03-31T13:58:46.487Z,21.25
2023-03-31T14:01:19.309Z,21.25
2023-03-31T14:03:52.841Z,21.25
2023-03-31T14:06:26.182Z,21.25
2023-03-31T14:08:59.352Z,21.26
2023-03-31T14:11:32.399Z,21.26
2023-03-31T14:14:05.495Z,21.26
2023-03-31T14:16:38.539Z,21.26
2023-03-31T14:19:11.170Z,21.27
2023-03-31T14:21:44.406Z,21.27
2023-03-31T14:24:17.453Z,21.27
2023-03-31T14:26:50.347Z,21.27
2023-03-31T14:29:23.551Z,21.28
2023-03-31T14:31:56.582Z,21.29
2023-03-31T14:34:29.569Z,21.30
2023-03-31T14:37:02.572Z,21.31
2023-03-31T14:39:35.776Z,21.32
2023-03-31T14:42:09.643Z,21.33
2023-03-31T14:44:42.635Z,21.34
2023-03-31T14:47:15.394Z,21.35
2023-03-31T14:49:48.696Z,21.37
2023-03-31T14:52:22.605Z,21.38
2023-03-31T14:54:55.777Z,21.39
2023-03-31T14:57:29.708Z,21.40
2023-03-31T15:00:03.426Z,21.41
2023-03-31T15:02:36.490Z,21.42
2023-03-31T15:05:09.476Z,21.44
2023-03-31T15:07:56.324Z,21.45
2023-03-31T15:10:29.430Z,21.47
2023-03-31T15:13:02.362Z,21.49
2023-03-31T15:15:35.426Z,21.51
2023-03-31T15:18:10.708Z,21.53
2023-03-31T15:20:41.535Z,21.55
2023-03-31T15:23:14.311Z,21.57
2023-03-31T15:25:47.365Z,21.58
2023-03-31T15:28:20.517Z,21.59
2023-03-31T15:31:06.908Z,21.60
2023-03-31T15:33:26.681Z,21.61
2023-03-31T15:35:59.694Z,21.62
2023-03-31T15:38:32.750Z,21.63
2023-03-31T15:41:06.663Z,21.63
2023-03-31T15:43:39.344Z,21.64
2023-03-31T15:46:12.370Z,21.64
2023-03-31T15:48:45.474Z,21.64
2023-03-31T15:51:18.468Z,21.64
2023-03-31T15:53:51.534Z,21.63
2023-03-31T15:56:24.371Z,21.63
2023-03-31T15:58:57.560Z,21.62
2023-03-31T16:01:30.438Z,21.61
2023-03-31T16:04:03.324Z,21.61
2023-03-31T16:06:36.546Z,21.60
2023-03-31T16:09:09.375Z,21.59
2023-03-31T16:11:42.483Z,21.58
2023-03-31T16:14:15.516Z,21.57
2023-03-31T16:16:48.538Z,21.56
2023-03-31T16:19:21.849Z,21.56
2023-03-31T16:21:55.434Z,21.55
2023-03-31T16:24:29.120Z,21.54
2023-03-31T16:27:01.709Z,21.54
2023-03-31T16:29:34.542Z,21.54
2023-03-31T16:32:07.389Z,21.54
2023-03-31T16:34:40.581Z,21.54
2023-03-31T16:37:13.478Z,21.53
2023-03-31T16:39:49.359Z,21.53
2023-03-31T16:42:22.531Z,21.53
2023-03-31T16:45:12.591Z,21.54
2023-03-31T16:47:35.587Z,21.54
2023-03-31T16:50:01.833Z,21.54
2023-03-31T16:52:34.571Z,21.54
2023-03-31T16:55:07.439Z,21.55
2023-03-31T16:57:40.757Z,21.55
2023-03-31T17:00:13.555Z,21.55
2023-03-31T17:02:46.770Z,21.56
2023-03-31T17:05:19.755Z,21.56
2023-03-31T17:07:52.632Z,21.57
2023-03-31T17:10:25.580Z,21.57
2023-03-31T17:12:58.594Z,21.58
2023-03-31T17:15:31.738Z,21.58
2023-03-31T17:18:04.920Z,21.59
2023-03-31T17:20:38.124Z,21.59
2023-03-31T17:23:10.493Z,21.60
2023-03-31T17:25:43.614Z,21.60
2023-03-31T17:28:16.583Z,21.60
2023-03-31T17:30:49.605Z,21.61
2023-03-31T17:33:22.638Z,21.61
2023-03-31T17:35:58.477Z,21.61
2023-03-31T17:38:31.626Z,21.61
2023-03-31T17:41:04.471Z,21.62
2023-03-31T17:43:37.595Z,21.62
2023-03-31T17:46:11.838Z,21.62
2023-03-31T17:48:43.763Z,21.63
2023-03-31T17:51:16.763Z,21.63
2023-03-31T17:53:49.676Z,21.64
2023-03-31T17:56:22.838Z,21.64
2023-03-31T17:58:56.088Z,21.65
2023-03-31T18:01:33.080Z,21.65
2023-03-31T18:04:06.618Z,21.66
2023-03-31T18:06:39.900Z,21.66
2023-03-31T18:09:12.797Z,21.66
2023-03-31T18:11:45.624Z,21.67
2023-03-31T18:14:18.754Z,21.67
2023-03-31T18:16:51.790Z,21.68
2023-03-31T18:19:24.699Z,21.68
2023-03-31T18:21:57.996Z,21.69
2023-03-31T18:24:31.941Z,21.69
2023-03-31T18:27:04.808Z,21.69
2023-03-31T18:29:37.672Z,21.70
2023-03-31T18:32:10.864Z,21.70
2023-03-31T18:34:49.259Z,21.70
2023-03-31T18:37:22.879Z,21.71
2023-03-31T18:39:55.704Z,21.71
2023-03-31T18:42:31.863Z,21.71
2023-03-31T18:45:04.922Z,21.72
2023-03-31T18:47:39.659Z,21.72
2023-03-31T18:50:14.308Z,21.73
2023-03-31T18:52:48.913Z,21.73
2023-03-31T18:55:22.282Z,21.73
2023-03-31T18:57:56.856Z,21.73
2023-03-31T19:00:29.774Z,21.74
2023-03-31T19:03:03.227Z,21.74
2023-03-31T19:05:36.614Z,21.74
2023-03-31T19:08:10.642Z,21.75
2023-03-31T19:10:45.182Z,21.75
2023-03-31T19:13:18.846Z,21.75
2023-03-31T19:15:51.805Z,21.75
2023-03-31T19:18:27.103Z,21.75
2023-03-31T19:21:01.900Z,21.76
2023-03-31T19:23:34.998Z,21.76
2023-03-31T19:26:07.821Z,21.76
2023-03-31T19:28:40.951Z,21.76
2023-03-31T19:31:14.931Z,21.76
2023-03-31T19:33:47.861Z,21.77
2023-03-31T19:36:20.789Z,21.77
2023-03-31T19:38:53.876Z,21.78
2023-03-31T19:41:27.003Z,21.78
2023-03-31T19:43:59.896Z,21.78
2023-03-31T19:46:32.765Z,21.78
2023-03-31T19:49:06.938Z,21.78
2023-03-31T19:51:39.992Z,21.78
2023-03-31T19:54:12.800Z,21.79
2023-03-31T19:56:46.065Z,21.79
2023-03-31T19:59:18.694Z,21.79
2023-03-31T20:01:52.292Z,21.79
2023-03-31T20:04:26.173Z,21.80
2023-03-31T20:06:59.104Z,21.80
2023-03-31T20:09:31.881Z,21.80
2023-03-31T20:12:05.004Z,21.81
2023-03-31T20:14:38.106Z,21.82
2023-03-31T20:17:11.036Z,21.82
2023-03-31T20:19:44.081Z,21.82
2023-03-31T20:22:17.066Z,21.82
2023-03-31T20:24:49.999Z,21.83
2023-03-31T20:27:23.052Z,21.83
2023-03-31T20:29:56.060Z,21.83
2023-03-31T20:32:29.012Z,21.84
2023-03-31T20:35:02.165Z,21.84
2023-03-31T20:37:35.224Z,21.84
2023-03-31T20:40:08.742Z,21.85
2023-03-31T20:42:41.910Z,21.85
2023-03-31T20:45:15.046Z,21.85
2023-03-31T20:47:47.884Z,21.85
2023-03-31T20:50:21.071Z,21.85
2023-03-31T20:52:53.922Z,21.85
2023-03-31T20:55:27.205Z,21.85
2023-03-31T20:58:00.146Z,21.85
2023-03-31T21:00:33.128Z,21.85
2023-03-31T21:03:05.821Z,21.85
2023-03-31T21:05:39.012Z,21.85
2023-03-31T21:08:11.813Z,21.85
2023-03-31T21:10:45.155Z,21.86
2023-03-31T21:13:17.997Z,21.86
2023-03-31T21:15:50.989Z,21.86
2023-03-31T21:18:24.187Z,21.86
2023-03-31T21:20:56.899Z,21.86
2023-03-31T21:23:30.212Z,21.86
2023-03-31T21:26:02.789Z,21.87
2023-03-31T21:28:36.136Z,21.87
2023-03-31T21:31:09.113Z,21.87
2023-03-31T21:33:42.173Z,21.87
2023-03-31T21:36:15.161Z,21.87
2023-03-31T21:38:48.278Z,21.87
2023-03-31T21:41:22.109Z,21.87
2023-03-31T21:43:55.405Z,21.87
2023-03-31T21:46:29.357Z,21.87
2023-03-31T21:49:03.043Z,21.88
2023-03-31T21:51:36.266Z,21.88
2023-03-31T21:54:09.159Z,21.88
2023-03-31T21:56:42.110Z,21.87
2023-03-31T21:59:15.386Z,21.86
2023-03-31T22:01:49.254Z,21.85
2023-03-31T22:04:22.192Z,21.84
2023-03-31T22:06:55.119Z,21.83
2023-03-31T22:09:28.051Z,21.83
2023-03-31T22:12:01.154Z,21.82
2023-03-31T22:14:34.224Z,21.81
2023-03-31T22:17:07.293Z,21.80
2023-03-31T22:19:40.325Z,21.79
2023-03-31T22:22:14.146Z,21.79
2023-03-31T22:24:47.062Z,21.78
2023-03-31T22:27:20.164Z,21.77
2023-03-31T22:29:53.279Z,21.77
2023-03-31T22:32:26.065Z,21.76
2023-03-31T22:34:59.335Z,21.75
2023-03-31T22:37:33.313Z,21.74
2023-03-31T22:40:05.914Z,21.73
2023-03-31T22:42:39.176Z,21.73
2023-03-31T22:45:17.859Z,21.72
2023-03-31T22:47:51.344Z,21.71
2023-03-31T22:50:24.059Z,21.70
2023-03-31T22:52:57.098Z,21.70
2023-03-31T22:55:30.579Z,21.69
2023-03-31T22:58:03.249Z,21.68
2023-03-31T23:00:36.315Z,21.68
2023-03-31T23:03:09.037Z,21.67
2023-03-31T23:05:42.186Z,21.67
2023-03-31T23:08:15.085Z,21.67
2023-03-31T23:10:48.117Z,21.66
2023-03-31T23:13:21.274Z,21.66
2023-03-31T23:15:54.313Z,21.65
2023-03-31T23:18:27.144Z,21.65
2023-03-31T23:21:14.243Z,21.64
2023-03-31T23:23:47.328Z,21.63
2023-03-31T23:26:20.250Z,21.63
2023-03-31T23:28:53.155Z,21.63
2023-03-31T23:31:26.633Z,21.62
2023-03-31T23:34:00.454Z,21.62
2023-03-31T23:36:34.328Z,21.61
2023-03-31T23:39:07.045Z,21.61
2023-03-31T23:41:41.404Z,21.60
2023-03-31T23:44:28.409Z,21.60
2023-03-31T23:47:01.386Z,21.59
2023-03-31T23:49:34.477Z,21.59
2023-03-31T23:52:08.429Z,21.58
2023-03-31T23:54:41.471Z,21.57
2023-03-31T23:57:15.380Z,21.57
2023-03-31T23:59:48.354Z,21.56
